Time,TemperatureF,DewpointF,PressureIn,WindDirection,WindDirectionDegrees,WindSpeedMPH,WindSpeedGustMPH,Humidity,HourlyPrecipIn,Conditions,Clouds,dailyrainin,SoftwareType,DateUTC
2013-05-26 00:02:00,52.0,36.0,-100.00,East,100,1.0,6.0,55,-99.99,,,-99.99,,2013-05-26 05:02:00,
2013-05-26 00:12:00,52.0,36.0,-100.00,East,100,1.0,6.0,55,-99.99,,,-99.99,,2013-05-26 05:12:00,
2013-05-26 00:22:00,52.0,36.0,-100.00,East,100,1.0,6.0,55,-99.99,,,-99.99,,2013-05-26 05:22:00,
2013-05-26 00:32:00,52.0,36.0,-100.00,East,100,1.0,6.0,55,-99.99,,,-99.99,,2013-05-26 05:32:00,
2013-05-26 01:01:00,49.0,36.0,-100.00,SSE,150,1.0,4.0,62,-99.99,,,-99.99,,2013-05-26 06:01:00,
2013-05-26 01:12:00,49.0,36.0,-100.00,SSE,150,1.0,4.0,62,-99.99,,,-99.99,,2013-05-26 06:12:00,
2013-05-26 01:22:00,49.0,36.0,-100.00,SSE,150,1.0,4.0,62,-99.99,,,-99.99,,2013-05-26 06:22:00,
2013-05-26 01:32:00,49.0,36.0,-100.00,SSE,150,1.0,4.0,62,-99.99,,,-99.99,,2013-05-26 06:32:00,
2013-05-26 02:01:00,46.0,36.0,-100.00,NE,55,1.0,3.0,69,-99.99,,,-99.99,,2013-05-26 07:01:00,
2013-05-26 02:11:00,46.0,36.0,-100.00,NE,55,1.0,3.0,69,-99.99,,,-99.99,,2013-05-26 07:11:00,
2013-05-26 02:21:00,46.0,36.0,-100.00,NE,55,1.0,3.0,69,-99.99,,,-99.99,,2013-05-26 07:21:00,
2013-05-26 02:31:00,46.0,36.0,-100.00,NE,55,1.0,3.0,69,-99.99,,,-99.99,,2013-05-26 07:31:00,
2013-05-26 03:01:00,44.0,39.0,-100.00,NE,55,3.0,4.0,84,-99.99,,,-99.99,,2013-05-26 08:01:00,
2013-05-26 03:12:00,44.0,39.0,-100.00,NE,55,3.0,4.0,84,-99.99,,,-99.99,,2013-05-26 08:12:00,
2013-05-26 03:21:00,44.0,39.0,-100.00,NE,55,3.0,4.0,84,-99.99,,,-99.99,,2013-05-26 08:21:00,
2013-05-26 03:32:00,44.0,39.0,-100.00,NE,55,3.0,4.0,84,-99.99,,,-99.99,,2013-05-26 08:32:00,
2013-05-26 04:01:00,44.0,39.0,-100.00,NE,55,3.0,5.0,83,-99.99,,,-99.99,,2013-05-26 09:01:00,
2013-05-26 04:11:00,44.0,39.0,-100.00,NE,55,3.0,5.0,83,-99.99,,,-99.99,,2013-05-26 09:11:00,
2013-05-26 04:21:00,44.0,39.0,-100.00,NE,55,3.0,5.0,83,-99.99,,,-99.99,,2013-05-26 09:21:00,
2013-05-26 04:33:00,44.0,39.0,-100.00,NE,55,3.0,5.0,83,-99.99,,,-99.99,,2013-05-26 09:33:00,
2013-05-26 05:02:00,43.0,39.0,-100.00,ENE,75,3.0,4.0,86,-99.99,,,-99.99,,2013-05-26 10:02:00,
2013-05-26 05:12:00,43.0,39.0,-100.00,ENE,75,3.0,4.0,86,-99.99,,,-99.99,,2013-05-26 10:12:00,
2013-05-26 05:23:00,43.0,39.0,-100.00,ENE,75,3.0,4.0,86,-99.99,,,-99.99,,2013-05-26 10:23:00,
2013-05-26 05:32:00,43.0,39.0,-100.00,ENE,75,3.0,4.0,86,-99.99,,,-99.99,,2013-05-26 10:32:00,
2013-05-26 06:03:00,43.0,39.0,-100.00,ENE,70,4.0,6.0,85,-99.99,,,-99.99,,2013-05-26 11:03:00,
2013-05-26 06:11:00,43.0,39.0,-100.00,ENE,70,4.0,6.0,85,-99.99,,,-99.99,,2013-05-26 11:11:00,
2013-05-26 06:22:00,43.0,39.0,-100.00,ENE,70,4.0,6.0,85,-99.99,,,-99.99,,2013-05-26 11:22:00,
2013-05-26 06:32:00,43.0,39.0,-100.00,ENE,70,4.0,6.0,85,-99.99,,,-99.99,,2013-05-26 11:32:00,
2013-05-26 07:02:00,45.0,40.0,-100.00,NE,55,3.0,5.0,83,-99.99,,,-99.99,,2013-05-26 12:02:00,
2013-05-26 07:12:00,45.0,40.0,-100.00,NE,55,3.0,5.0,83,-99.99,,,-99.99,,2013-05-26 12:12:00,
2013-05-26 07:21:00,45.0,40.0,-100.00,NE,55,3.0,5.0,83,-99.99,,,-99.99,,2013-05-26 12:21:00,
2013-05-26 07:32:00,45.0,40.0,-100.00,NE,55,3.0,5.0,83,-99.99,,,-99.99,,2013-05-26 12:32:00,
2013-05-26 08:02:00,49.0,40.0,-100.00,NE,50,2.0,6.0,73,-99.99,,,-99.99,,2013-05-26 13:02:00,
2013-05-26 08:11:00,49.0,40.0,-100.00,NE,50,2.0,6.0,73,-99.99,,,-99.99,,2013-05-26 13:11:00,
2013-05-26 08:21:00,49.0,40.0,-100.00,NE,50,2.0,6.0,73,-99.99,,,-99.99,,2013-05-26 13:21:00,
2013-05-26 08:32:00,49.0,40.0,-100.00,NE,50,2.0,6.0,73,-99.99,,,-99.99,,2013-05-26 13:32:00,
2013-05-26 09:02:00,52.0,36.0,-100.00,ENE,70,9.0,13.0,56,-99.99,,,-99.99,,2013-05-26 14:02:00,
2013-05-26 09:11:00,52.0,36.0,-100.00,ENE,70,9.0,13.0,56,-99.99,,,-99.99,,2013-05-26 14:11:00,
2013-05-26 09:21:00,52.0,36.0,-100.00,ENE,70,9.0,13.0,56,-99.99,,,-99.99,,2013-05-26 14:21:00,
2013-05-26 09:32:00,52.0,36.0,-100.00,ENE,70,9.0,13.0,56,-99.99,,,-99.99,,2013-05-26 14:32:00,
2013-05-26 10:01:00,55.0,35.0,-100.00,East,80,7.0,16.0,48,-99.99,,,-99.99,,2013-05-26 15:01:00,
2013-05-26 10:12:00,55.0,35.0,-100.00,East,80,7.0,16.0,48,-99.99,,,-99.99,,2013-05-26 15:12:00,
2013-05-26 10:22:00,55.0,35.0,-100.00,East,80,7.0,16.0,48,-99.99,,,-99.99,,2013-05-26 15:22:00,
2013-05-26 10:33:00,55.0,35.0,-100.00,East,80,7.0,16.0,48,-99.99,,,-99.99,,2013-05-26 15:33:00,
2013-05-26 11:03:00,60.0,35.0,-100.00,ESE,110,9.0,16.0,40,-99.99,,,-99.99,,2013-05-26 16:03:00,
2013-05-26 11:12:00,60.0,35.0,-100.00,ESE,110,9.0,16.0,40,-99.99,,,-99.99,,2013-05-26 16:12:00,
2013-05-26 11:23:00,60.0,35.0,-100.00,ESE,110,9.0,16.0,40,-99.99,,,-99.99,,2013-05-26 16:23:00,
2013-05-26 11:33:00,60.0,35.0,-100.00,ESE,110,9.0,16.0,40,-99.99,,,-99.99,,2013-05-26 16:33:00,
2013-05-26 12:02:00,62.0,34.0,-100.00,East,100,10.0,19.0,36,-99.99,,,-99.99,,2013-05-26 17:02:00,
2013-05-26 12:11:00,62.0,34.0,-100.00,East,100,10.0,19.0,36,-99.99,,,-99.99,,2013-05-26 17:11:00,
2013-05-26 12:22:00,62.0,34.0,-100.00,East,100,10.0,19.0,36,-99.99,,,-99.99,,2013-05-26 17:22:00,
2013-05-26 12:32:00,62.0,34.0,-100.00,East,100,10.0,19.0,36,-99.99,,,-99.99,,2013-05-26 17:32:00,
2013-05-26 13:01:00,63.0,35.0,-100.00,East,85,9.0,19.0,35,-99.99,,,-99.99,,2013-05-26 18:01:00,
2013-05-26 13:12:00,63.0,35.0,-100.00,East,85,9.0,19.0,35,-99.99,,,-99.99,,2013-05-26 18:12:00,
2013-05-26 13:21:00,63.0,35.0,-100.00,East,85,9.0,19.0,35,-99.99,,,-99.99,,2013-05-26 18:21:00,
2013-05-26 13:32:00,63.0,35.0,-100.00,East,85,9.0,19.0,35,-99.99,,,-99.99,,2013-05-26 18:32:00,
2013-05-26 14:01:00,63.0,34.0,-100.00,East,100,10.0,19.0,33,-99.99,,,-99.99,,2013-05-26 19:01:00,
2013-05-26 14:11:00,63.0,34.0,-100.00,East,100,10.0,19.0,33,-99.99,,,-99.99,,2013-05-26 19:11:00,
2013-05-26 14:22:00,63.0,34.0,-100.00,East,100,10.0,19.0,33,-99.99,,,-99.99,,2013-05-26 19:22:00,
2013-05-26 14:32:00,63.0,34.0,-100.00,East,100,10.0,19.0,33,-99.99,,,-99.99,,2013-05-26 19:32:00,
2013-05-26 15:02:00,65.0,34.0,-100.00,East,90,6.0,16.0,32,-99.99,,,-99.99,,2013-05-26 20:02:00,
2013-05-26 15:11:00,65.0,34.0,-100.00,East,90,6.0,16.0,32,-99.99,,,-99.99,,2013-05-26 20:11:00,
2013-05-26 15:22:00,65.0,34.0,-100.00,East,90,6.0,16.0,32,-99.99,,,-99.99,,2013-05-26 20:22:00,
2013-05-26 15:32:00,65.0,34.0,-100.00,East,90,6.0,16.0,32,-99.99,,,-99.99,,2013-05-26 20:32:00,
2013-05-26 16:02:00,63.0,35.0,-100.00,ESE,115,7.0,13.0,34,-99.99,,,-99.99,,2013-05-26 21:02:00,
2013-05-26 16:11:00,63.0,35.0,-100.00,ESE,115,7.0,13.0,34,-99.99,,,-99.99,,2013-05-26 21:11:00,
2013-05-26 16:22:00,63.0,35.0,-100.00,ESE,115,7.0,13.0,34,-99.99,,,-99.99,,2013-05-26 21:22:00,
2013-05-26 16:33:00,63.0,35.0,-100.00,ESE,115,7.0,13.0,34,-99.99,,,-99.99,,2013-05-26 21:33:00,
2013-05-26 16:53:00,63.0,36.0,-100.00,SE,135,6.0,14.0,36,-99.99,,,-99.99,,2013-05-26 21:53:00,
2013-05-26 17:03:00,63.0,36.0,-100.00,SE,135,6.0,14.0,36,-99.99,,,-99.99,,2013-05-26 22:03:00,
2013-05-26 17:12:00,63.0,36.0,-100.00,SE,135,6.0,14.0,36,-99.99,,,-99.99,,2013-05-26 22:12:00,
2013-05-26 17:23:00,63.0,36.0,-100.00,SE,135,6.0,14.0,36,-99.99,,,-99.99,,2013-05-26 22:23:00,
2013-05-26 17:33:00,63.0,36.0,-100.00,SE,135,6.0,14.0,36,-99.99,,,-99.99,,2013-05-26 22:33:00,
2013-05-26 17:53:00,63.0,36.0,-100.00,SE,125,6.0,12.0,36,-99.99,,,-99.99,,2013-05-26 22:53:00,
2013-05-26 18:02:00,63.0,36.0,-100.00,SE,125,6.0,12.0,36,-99.99,,,-99.99,,2013-05-26 23:02:00,
2013-05-26 18:12:00,63.0,36.0,-100.00,SE,125,6.0,12.0,36,-99.99,,,-99.99,,2013-05-26 23:12:00,
2013-05-26 18:22:00,63.0,36.0,-100.00,SE,125,6.0,12.0,36,-99.99,,,-99.99,,2013-05-26 23:22:00,
2013-05-26 18:32:00,63.0,36.0,-100.00,SE,125,6.0,12.0,36,-99.99,,,-99.99,,2013-05-26 23:32:00,
2013-05-26 19:02:00,63.0,37.0,-100.00,East,80,7.0,16.0,39,-99.99,,,-99.99,,2013-05-27 00:02:00,
2013-05-26 19:11:00,63.0,37.0,-100.00,East,80,7.0,16.0,39,-99.99,,,-99.99,,2013-05-27 00:11:00,
2013-05-26 19:22:00,63.0,37.0,-100.00,East,80,7.0,16.0,39,-99.99,,,-99.99,,2013-05-27 00:22:00,
2013-05-26 19:32:00,63.0,37.0,-100.00,East,80,7.0,16.0,39,-99.99,,,-99.99,,2013-05-27 00:32:00,
2013-05-26 20:01:00,62.0,36.0,-100.00,ESE,110,7.0,12.0,38,-99.99,,,-99.99,,2013-05-27 01:01:00,
2013-05-26 20:11:00,62.0,36.0,-100.00,ESE,110,7.0,12.0,38,-99.99,,,-99.99,,2013-05-27 01:11:00,
2013-05-26 20:22:00,62.0,36.0,-100.00,ESE,110,7.0,12.0,38,-99.99,,,-99.99,,2013-05-27 01:22:00,
2013-05-26 20:31:00,62.0,36.0,-100.00,ESE,110,7.0,12.0,38,-99.99,,,-99.99,,2013-05-27 01:31:00,
2013-05-26 21:02:00,59.0,41.0,-100.00,SSE,155,3.0,7.0,52,-99.99,,,-99.99,,2013-05-27 02:02:00,
2013-05-26 21:11:00,59.0,41.0,-100.00,SSE,155,3.0,7.0,52,-99.99,,,-99.99,,2013-05-27 02:11:00,
2013-05-26 21:22:00,59.0,41.0,-100.00,SSE,155,3.0,7.0,52,-99.99,,,-99.99,,2013-05-27 02:22:00,
2013-05-26 21:32:00,59.0,41.0,-100.00,SSE,155,3.0,7.0,52,-99.99,,,-99.99,,2013-05-27 02:32:00,
2013-05-26 22:02:00,56.0,46.0,-100.00,ENE,70,3.0,6.0,69,-99.99,,,-99.99,,2013-05-27 03:02:00,
2013-05-26 22:11:00,56.0,46.0,-100.00,ENE,70,3.0,6.0,69,-99.99,,,-99.99,,2013-05-27 03:11:00,
2013-05-26 22:21:00,56.0,46.0,-100.00,ENE,70,3.0,6.0,69,-99.99,,,-99.99,,2013-05-27 03:21:00,
2013-05-26 22:33:00,56.0,46.0,-100.00,ENE,70,3.0,6.0,69,-99.99,,,-99.99,,2013-05-27 03:33:00,
2013-05-26 23:02:00,56.0,42.0,-100.00,East,100,1.0,5.0,59,-99.99,,,-99.99,,2013-05-27 04:02:00,
2013-05-26 23:12:00,56.0,42.0,-100.00,East,100,1.0,5.0,59,-99.99,,,-99.99,,2013-05-27 04:12:00,
2013-05-26 23:23:00,56.0,42.0,-100.00,East,100,1.0,5.0,59,-99.99,,,-99.99,,2013-05-27 04:23:00,
2013-05-26 23:33:00,56.0,42.0,-100.00,East,100,1.0,5.0,59,-99.99,,,-99.99,,2013-05-27 04:33:00,